To NAV CANADA Home Page Login to a new session Search on AWWS site Feedback and Comments Disclaimer Vers la page française équivalente Tips FAQ What's new on the site To the Forecasts and Observations / NOTAM section To "File a Flight Plan" website Publications and other links Update of the User's profile FIC Telephone Numbers My Weather Data Folder Route Weather Data Regional Weather Data Local Weather Data To the Forecasts and Observations / NOTAM section
Request Generated 12/04/2016 at 22:21:36 UTC . Weather information available at that time is displayed.

METAR/TAF

COLD LAKE/GROUP CAPTAIN R.W. MCNAIR/AB    

METAR CYOD 042200Z 29010G16KT 3SM -SN OVC018 M04/M07 A2956 RMK SC8 SLP042=
SPECI CYOD 042150Z 28014KT 3SM -SN OVC018 M04/M07 A2955 RMK SC8 SLP039=
SPECI CYOD 042139Z CCA 28011G16KT 7SM -SN BKN018 OVC080 M04/M07 A2955 RMK SC5AC3 VIS LWR W QUAD SLP038=
SPECI CYOD 042139Z 28011G16KT 7SM BKN018 OVC080 M04/M07 A2955 RMK SC5AC3 VIS LWR W QUAD SLP038=
SPECI CYOD 042121Z 30013G18KT 5SM -SN BKN018 OVC080 M04/M07 A2955 RMK SC6AC2 PCPN VRY LGT SLP036=
SPECI CYOD 042112Z 29011G17KT 3SM -SN OVC018 M04/M06 A2954 RMK SC8 PCPN VRY LGT SLP035=
METAR CYOD 042100Z 28012KT 1 1/2SM -SN OVC019 M03/M06 A2954 RMK SC8 VIS VRB 1-2 SLP033=
SPECI CYOD 042047Z 28012G17KT 1 1/2SM -SN OVC016 M04/M05 A2953 RMK SN3SC5 VIS VRB 1-2 SLP031=
SPECI CYOD 042020Z 28009G15KT 5/8SM R31R/4500FT/D -SN VV006 M03/M06 A2953 RMK SN8 VIS VRB 3/4-1 SLP031=
SPECI CYOD 042012Z 27012G17KT 1 1/2SM -SN VV012 M03/M06 A2953 RMK SN8 SLP030=
SPECI CYOD 042007Z 27011G17KT 2SM -SN SCT030 OVC040 M03/M07 A2953 RMK SC3SC5 SLP030=
METAR CYOD 042000Z 27010KT 15SM VCSH SCT030 OVC040 M03/M07 A2953 RMK SC3SC5 SLP031=

TAF AMD CYOD 042024Z 0420/0518 30012G22KT 6SM -SN OVC040 TEMPO
0420/0512 3/4SM -SHSN VV008
FM051200 32010KT P6SM -SN OVC030 TEMPO 0512/0518 3SM -SN
RMK NXT FCST BY 050000Z=
Your time UTC time
Weather data provided by Environment Canada and NAV CANADA